Time;durP1;ratioP1;P1;durP2;ratioP2;P2;SDS_P1;SDS_P2;PMS_P1;PMS_P2;Temp;Humidity;BMP_temperature;BMP_pressure;BME280_temperature;BME280_humidity;BME280_pressure;Samples;Min_cycle;Max_cycle;Signal;HPM_P1;HPM_P2
2022/11/28 00:02:20;;;;;;;12.30;11.10;;;;;;;;;;5056839;28;20450;-76
2022/11/28 00:04:51;;;;;;;12.53;11.10;;;;;;;;;;5062248;28;20469;-75
2022/11/28 00:07:18;;;;;;;12.07;10.87;;;;;;;;;;5056923;28;20419;-75
2022/11/28 00:09:45;;;;;;;12.00;10.87;;;;;;;;;;5057721;28;20443;-75
2022/11/28 00:12:12;;;;;;;12.90;11.70;;;;;;;;;;5055504;28;20450;-75
2022/11/28 00:14:39;;;;;;;12.80;11.60;;;;;;;;;;5059862;28;20462;-75
2022/11/28 00:17:07;;;;;;;12.00;10.80;;;;;;;;;;5061003;28;20524;-76
2022/11/28 00:19:34;;;;;;;12.43;11.13;;;;;;;;;;5060849;28;20516;-76
2022/11/28 00:22:02;;;;;;;11.67;10.40;;;;;;;;;;5061633;28;20473;-75
2022/11/28 00:24:29;;;;;;;11.97;10.90;;;;;;;;;;5062189;28;20457;-75
2022/11/28 00:26:56;;;;;;;12.10;10.90;;;;;;;;;;5076257;28;20493;-75
2022/11/28 00:29:23;;;;;;;11.70;10.60;;;;;;;;;;5079624;28;20425;-75
2022/11/28 00:31:50;;;;;;;11.27;10.27;;;;;;;;;;5079569;28;20441;-75
2022/11/28 00:34:18;;;;;;;11.90;10.90;;;;;;;;;;5079696;28;20474;-74
2022/11/28 00:36:46;;;;;;;12.23;10.93;;;;;;;;;;5083391;28;20425;-76
2022/11/28 00:39:13;;;;;;;12.63;11.47;;;;;;;;;;5093382;28;20482;-75
2022/11/28 00:41:40;;;;;;;12.87;11.67;;;;;;;;;;5076768;28;20448;-75
2022/11/28 00:44:07;;;;;;;12.20;11.00;;;;;;;;;;5073315;28;20491;-75
2022/11/28 00:46:35;;;;;;;11.47;10.37;;;;;;;;;;5073653;28;20534;-76
2022/11/28 00:49:02;;;;;;;11.67;10.43;;;;;;;;;;5073669;28;20443;-76
2022/11/28 00:51:31;;;;;;;12.70;11.37;;;;;;;;;;5073228;28;20933;-76
2022/11/28 00:53:59;;;;;;;11.10;10.10;;;;;;;;;;5072180;28;20471;-75
2022/11/28 00:56:27;;;;;;;11.40;10.40;;;;;;;;;;5073265;28;20472;-75
2022/11/28 00:58:54;;;;;;;13.10;11.90;;;;;;;;;;5072926;28;20893;-77
2022/11/28 01:01:22;;;;;;;12.00;10.90;;;;;;;;;;5072826;28;20448;-74
2022/11/28 01:03:51;;;;;;;11.30;10.30;;;;;;;;;;5072272;28;20440;-75
2022/11/28 01:06:21;;;;;;;11.50;10.40;;;;;;;;;;5072443;28;20448;-75
2022/11/28 01:08:49;;;;;;;11.30;10.30;;;;;;;;;;5072678;28;20958;-75
2022/11/28 01:11:17;;;;;;;11.43;10.37;;;;;;;;;;5072809;28;20445;-75
2022/11/28 01:13:44;;;;;;;11.53;10.53;;;;;;;;;;5072092;28;20955;-74
2022/11/28 01:16:11;;;;;;;11.77;10.67;;;;;;;;;;5072712;28;20441;-74
2022/11/28 01:18:41;;;;;;;11.60;10.60;;;;;;;;;;5068666;28;20846;-76
2022/11/28 01:21:08;;;;;;;11.33;10.33;;;;;;;;;;5069936;28;20452;-75
2022/11/28 01:23:36;;;;;;;11.03;10.10;;;;;;;;;;5071692;28;20451;-75
2022/11/28 01:26:05;;;;;;;11.50;10.47;;;;;;;;;;5070999;28;20940;-74
2022/11/28 01:28:32;;;;;;;13.80;11.57;;;;;;;;;;5072439;28;20839;-75
2022/11/28 01:31:03;;;;;;;11.27;10.37;;;;;;;;;;5072376;28;20882;-75
2022/11/28 01:33:30;;;;;;;11.37;10.23;;;;;;;;;;5071827;28;20836;-75
2022/11/28 01:35:58;;;;;;;11.67;10.57;;;;;;;;;;5072479;28;20460;-74
2022/11/28 01:38:25;;;;;;;11.53;10.60;;;;;;;;;;5072381;28;20488;-74
2022/11/28 01:40:52;;;;;;;11.20;10.10;;;;;;;;;;5072644;28;20444;-75
2022/11/28 01:43:20;;;;;;;11.80;10.60;;;;;;;;;;5071781;28;20449;-75
2022/11/28 01:45:48;;;;;;;11.90;10.43;;;;;;;;;;5086575;28;20461;-75
2022/11/28 01:48:16;;;;;;;10.93;9.80;;;;;;;;;;5087674;28;20448;-74
2022/11/28 01:50:44;;;;;;;11.33;10.33;;;;;;;;;;5085997;28;20491;-75
2022/11/28 01:53:13;;;;;;;11.20;10.10;;;;;;;;;;5073982;28;20456;-75
2022/11/28 01:55:43;;;;;;;10.80;9.90;;;;;;;;;;5068807;28;20479;-75
2022/11/28 01:58:11;;;;;;;11.00;10.00;;;;;;;;;;5072272;28;20468;-76
2022/11/28 02:00:39;;;;;;;11.10;10.20;;;;;;;;;;5072430;28;20444;-75
2022/11/28 02:03:09;;;;;;;11.77;10.57;;;;;;;;;;5071529;28;20467;-75
2022/11/28 02:05:36;;;;;;;11.60;10.40;;;;;;;;;;5072131;28;20477;-75
2022/11/28 02:08:03;;;;;;;12.30;11.20;;;;;;;;;;5071467;28;20460;-76
2022/11/28 02:10:34;;;;;;;11.70;10.53;;;;;;;;;;5071734;28;20452;-76
2022/11/28 02:13:20;;;;;;;11.77;10.53;;;;;;;;;;5071234;28;20445;-75
2022/11/28 02:15:56;;;;;;;11.83;10.83;;;;;;;;;;5071932;28;20551;-76
2022/11/28 02:18:30;;;;;;;11.43;10.30;;;;;;;;;;5071488;28;20479;-74
2022/11/28 02:21:17;;;;;;;11.73;10.63;;;;;;;;;;5071429;28;20451;-75
2022/11/28 02:23:58;;;;;;;11.73;10.63;;;;;;;;;;5061178;28;20452;-75
2022/11/28 02:26:41;;;;;;;11.43;10.43;;;;;;;;;;5071046;28;20558;-75
2022/11/28 02:35:19;;;;;;;10.70;9.80;;;;;;;;;;5059681;28;20474;-75
2022/11/28 02:37:50;;;;;;;11.13;10.13;;;;;;;;;;5074502;28;20448;-75
2022/11/28 02:40:23;;;;;;;10.73;9.70;;;;;;;;;;5073519;28;20491;-75
2022/11/28 02:42:54;;;;;;;11.60;10.60;;;;;;;;;;5074256;28;20449;-75
2022/11/28 02:45:25;;;;;;;10.70;9.80;;;;;;;;;;5071595;28;20460;-74
2022/11/28 02:47:56;;;;;;;11.50;10.40;;;;;;;;;;5070872;28;20445;-74
2022/11/28 02:50:26;;;;;;;10.73;9.80;;;;;;;;;;5070899;28;20429;-76
2022/11/28 02:52:55;;;;;;;12.20;11.10;;;;;;;;;;5070398;28;20595;-75
2022/11/28 02:55:22;;;;;;;12.07;10.90;;;;;;;;;;5073537;28;20847;-75
2022/11/28 02:57:50;;;;;;;12.07;11.00;;;;;;;;;;5075367;28;20452;-75
2022/11/28 03:00:23;;;;;;;11.53;10.53;;;;;;;;;;5072933;28;20830;-74
2022/11/28 03:02:54;;;;;;;11.07;10.07;;;;;;;;;;5073798;28;20445;-75
2022/11/28 03:05:23;;;;;;;10.97;9.97;;;;;;;;;;5071789;28;20848;-74
2022/11/28 03:08:01;;;;;;;10.97;10.00;;;;;;;;;;5070615;28;20522;-75
2022/11/28 03:10:33;;;;;;;11.23;9.97;;;;;;;;;;5070767;28;20440;-75
2022/11/28 03:13:07;;;;;;;10.70;9.57;;;;;;;;;;5070325;28;20444;-74
2022/11/28 03:15:38;;;;;;;11.57;10.47;;;;;;;;;;5070629;28;20484;-75
2022/11/28 03:18:08;;;;;;;9.70;8.80;;;;;;;;;;5070931;28;20452;-74
2022/11/28 03:20:40;;;;;;;10.77;9.73;;;;;;;;;;5070760;28;20478;-75
2022/11/28 03:23:12;;;;;;;10.80;9.90;;;;;;;;;;5069795;28;20441;-75
2022/11/28 03:25:42;;;;;;;9.40;8.60;;;;;;;;;;5070299;28;20807;-75
2022/11/28 03:28:12;;;;;;;10.47;9.57;;;;;;;;;;5070410;28;20950;-75
2022/11/28 03:30:42;;;;;;;10.77;9.67;;;;;;;;;;5070978;28;20433;-75
2022/11/28 03:33:10;;;;;;;10.80;9.73;;;;;;;;;;5069861;28;20523;-74
2022/11/28 03:35:38;;;;;;;10.33;9.23;;;;;;;;;;5070529;28;20461;-75
2022/11/28 03:38:08;;;;;;;10.57;9.63;;;;;;;;;;5071030;28;20463;-74
2022/11/28 03:40:40;;;;;;;10.80;9.90;;;;;;;;;;5069934;28;20846;-75
2022/11/28 03:43:09;;;;;;;9.90;9.00;;;;;;;;;;5070133;28;20437;-74
2022/11/28 03:45:39;;;;;;;10.87;9.97;;;;;;;;;;5070043;28;20965;-75
2022/11/28 03:48:08;;;;;;;9.30;8.50;;;;;;;;;;5071687;28;20482;-76
2022/11/28 03:50:40;;;;;;;10.57;9.67;;;;;;;;;;5074217;28;20456;-75
2022/11/28 03:53:10;;;;;;;10.83;9.80;;;;;;;;;;5073632;28;20440;-74
2022/11/28 03:55:41;;;;;;;10.77;9.77;;;;;;;;;;5074085;28;20994;-74
2022/11/28 03:58:12;;;;;;;9.60;8.80;;;;;;;;;;5074200;28;20440;-76
2022/11/28 04:00:49;;;;;;;10.73;9.77;;;;;;;;;;5074215;28;20530;-75
2022/11/28 04:03:21;;;;;;;10.47;9.37;;;;;;;;;;5073886;28;20459;-76
2022/11/28 04:05:50;;;;;;;9.33;8.37;;;;;;;;;;5073847;28;20476;-74
2022/11/28 04:08:18;;;;;;;10.10;9.13;;;;;;;;;;5074360;28;20444;-75
2022/11/28 04:10:51;;;;;;;10.87;9.87;;;;;;;;;;5074041;28;20444;-75
2022/11/28 04:13:21;;;;;;;11.03;10.03;;;;;;;;;;5069049;28;20452;-73
2022/11/28 04:15:51;;;;;;;10.00;9.00;;;;;;;;;;5054331;28;20465;-74
2022/11/28 04:18:21;;;;;;;9.97;9.17;;;;;;;;;;5054655;28;20940;-75
2022/11/28 04:20:50;;;;;;;9.67;8.77;;;;;;;;;;5055128;28;20473;-75
2022/11/28 04:23:18;;;;;;;10.50;9.40;;;;;;;;;;5054629;28;20450;-74
2022/11/28 04:25:50;;;;;;;10.43;9.53;;;;;;;;;;5055039;28;20476;-75
2022/11/28 04:28:20;;;;;;;10.47;9.37;;;;;;;;;;5054883;28;20442;-76
2022/11/28 04:30:48;;;;;;;10.97;9.97;;;;;;;;;;5056431;28;20445;-75
2022/11/28 04:33:16;;;;;;;10.53;9.57;;;;;;;;;;5054371;28;20873;-75
2022/11/28 04:35:46;;;;;;;10.43;9.50;;;;;;;;;;5054626;28;20457;-75
2022/11/28 04:38:13;;;;;;;9.90;9.00;;;;;;;;;;5057960;28;20449;-75
2022/11/28 04:40:44;;;;;;;11.63;10.53;;;;;;;;;;5058797;28;20481;-75
2022/11/28 04:43:17;;;;;;;10.20;9.20;;;;;;;;;;5064772;28;20451;-74
2022/11/28 04:45:45;;;;;;;10.80;9.77;;;;;;;;;;5062939;28;20976;-76
2022/11/28 04:48:15;;;;;;;10.20;9.20;;;;;;;;;;5057332;28;20482;-77
2022/11/28 04:50:44;;;;;;;9.53;8.80;;;;;;;;;;5054075;28;20450;-74
2022/11/28 04:53:14;;;;;;;10.47;9.57;;;;;;;;;;5053346;28;20933;-75
2022/11/28 04:55:44;;;;;;;9.20;8.40;;;;;;;;;;5052980;28;20466;-74
2022/11/28 04:58:14;;;;;;;11.10;9.97;;;;;;;;;;5053386;28;20449;-74
2022/11/28 05:00:41;;;;;;;10.90;9.90;;;;;;;;;;5053275;28;20485;-75
2022/11/28 05:03:10;;;;;;;11.30;10.30;;;;;;;;;;5053351;28;20464;-74
2022/11/28 05:05:42;;;;;;;11.10;10.00;;;;;;;;;;5052848;28;20482;-75
2022/11/28 05:08:10;;;;;;;10.87;9.87;;;;;;;;;;5053517;28;20468;-75
2022/11/28 05:10:37;;;;;;;11.07;9.97;;;;;;;;;;5054087;28;20849;-74
2022/11/28 05:13:04;;;;;;;10.93;10.03;;;;;;;;;;5057316;28;20445;-74
2022/11/28 05:15:33;;;;;;;11.30;10.30;;;;;;;;;;5076436;28;20461;-75
2022/11/28 05:18:00;;;;;;;11.77;10.67;;;;;;;;;;5074971;28;20441;-75
2022/11/28 05:20:27;;;;;;;10.93;9.90;;;;;;;;;;5074173;28;20473;-75
2022/11/28 05:22:54;;;;;;;11.10;10.00;;;;;;;;;;5072067;28;20455;-75
2022/11/28 05:25:22;;;;;;;10.57;9.57;;;;;;;;;;5072484;28;20980;-74
2022/11/28 05:27:49;;;;;;;10.33;9.23;;;;;;;;;;5073014;28;20445;-74
2022/11/28 05:30:16;;;;;;;12.13;9.57;;;;;;;;;;5073094;28;20448;-75
2022/11/28 05:32:44;;;;;;;11.63;10.43;;;;;;;;;;5075044;28;20447;-75
2022/11/28 05:35:11;;;;;;;11.80;10.10;;;;;;;;;;5076897;28;20484;-75
2022/11/28 05:37:38;;;;;;;12.37;10.30;;;;;;;;;;5074108;28;20472;-75
2022/11/28 05:40:06;;;;;;;11.93;9.97;;;;;;;;;;5071862;28;20484;-74
2022/11/28 05:42:33;;;;;;;11.73;10.53;;;;;;;;;;5070051;28;21004;-75
2022/11/28 05:45:01;;;;;;;12.83;9.87;;;;;;;;;;5072808;28;21006;-74
2022/11/28 05:47:30;;;;;;;10.60;9.50;;;;;;;;;;5075771;28;20532;-76
2022/11/28 05:49:58;;;;;;;12.47;11.37;;;;;;;;;;5076202;28;20457;-75
2022/11/28 05:52:28;;;;;;;12.27;11.07;;;;;;;;;;5076238;28;20444;-75
2022/11/28 05:54:55;;;;;;;12.30;11.13;;;;;;;;;;5074064;28;21046;-75
2022/11/28 05:57:22;;;;;;;12.07;10.87;;;;;;;;;;5075185;28;20453;-75
2022/11/28 05:59:49;;;;;;;13.50;10.87;;;;;;;;;;5073793;28;21015;-75
2022/11/28 06:02:16;;;;;;;11.00;9.90;;;;;;;;;;5072056;28;20449;-75
2022/11/28 06:04:43;;;;;;;12.87;11.53;;;;;;;;;;5071116;28;20945;-74
2022/11/28 06:07:12;;;;;;;11.40;10.30;;;;;;;;;;5072139;28;20955;-75
2022/11/28 06:09:39;;;;;;;10.90;9.90;;;;;;;;;;5072433;28;20816;-75
2022/11/28 06:12:06;;;;;;;9.77;8.87;;;;;;;;;;5071784;28;20452;-75
2022/11/28 06:14:33;;;;;;;10.30;9.37;;;;;;;;;;5055739;28;20476;-74
2022/11/28 06:17:00;;;;;;;12.07;10.87;;;;;;;;;;5052010;28;20499;-77
2022/11/28 06:19:27;;;;;;;13.33;11.93;;;;;;;;;;5051447;28;20477;-76
2022/11/28 06:21:55;;;;;;;12.27;11.07;;;;;;;;;;5051300;28;20815;-75
2022/11/28 06:24:23;;;;;;;11.40;10.40;;;;;;;;;;5050656;28;20473;-75
2022/11/28 06:26:50;;;;;;;11.87;10.70;;;;;;;;;;5051047;28;20442;-75
2022/11/28 06:29:17;;;;;;;11.00;9.90;;;;;;;;;;5050970;28;20455;-75
2022/11/28 06:31:44;;;;;;;10.40;9.43;;;;;;;;;;5051835;28;20457;-75
2022/11/28 06:34:12;;;;;;;12.00;10.80;;;;;;;;;;5051334;28;20457;-75
2022/11/28 06:36:39;;;;;;;11.00;9.90;;;;;;;;;;5052517;28;20524;-76
2022/11/28 06:39:06;;;;;;;11.50;10.30;;;;;;;;;;5059433;28;20453;-74
2022/11/28 06:41:35;;;;;;;10.77;9.67;;;;;;;;;;5065720;28;20442;-75
2022/11/28 06:44:02;;;;;;;10.50;9.47;;;;;;;;;;5062752;28;20977;-75
2022/11/28 06:46:29;;;;;;;12.93;9.40;;;;;;;;;;5060199;28;20980;-76
2022/11/28 06:48:56;;;;;;;12.93;11.53;;;;;;;;;;5059404;28;20455;-75
2022/11/28 06:51:23;;;;;;;14.30;12.57;;;;;;;;;;5060402;28;20437;-74
2022/11/28 06:53:51;;;;;;;13.07;11.13;;;;;;;;;;5063823;28;20441;-74
2022/11/28 06:56:19;;;;;;;12.73;11.50;;;;;;;;;;5059715;28;20451;-75
2022/11/28 06:58:48;;;;;;;11.93;10.57;;;;;;;;;;5054559;28;20457;-75
2022/11/28 07:01:16;;;;;;;13.57;9.90;;;;;;;;;;5051017;28;20482;-75
2022/11/28 07:03:44;;;;;;;11.53;10.40;;;;;;;;;;5050007;28;20450;-75
2022/11/28 07:06:11;;;;;;;11.77;10.57;;;;;;;;;;5050545;28;20474;-75
2022/11/28 07:08:39;;;;;;;11.07;10.07;;;;;;;;;;5050346;28;20988;-75
2022/11/28 07:11:10;;;;;;;11.30;10.20;;;;;;;;;;5050214;28;20539;-74
2022/11/28 07:13:37;;;;;;;10.80;9.70;;;;;;;;;;5057444;28;20452;-74
2022/11/28 07:16:06;;;;;;;10.93;9.93;;;;;;;;;;5070428;28;20446;-75
2022/11/28 07:18:33;;;;;;;10.10;9.20;;;;;;;;;;5071249;28;20448;-76
2022/11/28 07:21:00;;;;;;;10.77;9.77;;;;;;;;;;5070278;28;20838;-74
2022/11/28 07:23:27;;;;;;;15.37;9.97;;;;;;;;;;5070618;28;20449;-76
2022/11/28 07:25:58;;;;;;;11.30;10.23;;;;;;;;;;5072685;28;20464;-75
2022/11/28 07:28:25;;;;;;;14.40;10.73;;;;;;;;;;5071985;28;20951;-75
2022/11/28 07:30:58;;;;;;;11.13;10.13;;;;;;;;;;5073017;28;20898;-75
2022/11/28 07:33:27;;;;;;;12.83;10.20;;;;;;;;;;5070875;28;20441;-75
2022/11/28 07:35:54;;;;;;;10.90;10.00;;;;;;;;;;5071215;28;20473;-75
2022/11/28 07:38:21;;;;;;;13.10;10.40;;;;;;;;;;5070345;28;20441;-76
2022/11/28 07:40:48;;;;;;;11.63;9.63;;;;;;;;;;5069985;28;20485;-76
2022/11/28 07:43:15;;;;;;;10.73;9.83;;;;;;;;;;5069208;28;20445;-75
2022/11/28 07:45:42;;;;;;;11.43;10.43;;;;;;;;;;5069938;28;20484;-75
2022/11/28 07:48:09;;;;;;;11.70;10.60;;;;;;;;;;5070208;28;20878;-75
2022/11/28 07:50:39;;;;;;;11.27;10.27;;;;;;;;;;5069776;28;20463;-75
2022/11/28 07:53:06;;;;;;;10.87;9.87;;;;;;;;;;5069233;28;20960;-76
2022/11/28 07:55:35;;;;;;;10.63;9.73;;;;;;;;;;5069950;28;20492;-76
2022/11/28 07:58:03;;;;;;;12.10;10.50;;;;;;;;;;5070451;28;20446;-75
2022/11/28 08:00:30;;;;;;;11.60;10.43;;;;;;;;;;5070053;28;20534;-75
2022/11/28 08:02:57;;;;;;;16.37;10.27;;;;;;;;;;5069368;28;20441;-75
2022/11/28 08:05:24;;;;;;;11.93;10.73;;;;;;;;;;5069879;28;20800;-76
2022/11/28 08:07:53;;;;;;;16.23;10.77;;;;;;;;;;5070134;28;20439;-75
2022/11/28 08:10:20;;;;;;;11.60;10.50;;;;;;;;;;5069801;28;20448;-75
2022/11/28 08:12:47;;;;;;;11.93;10.20;;;;;;;;;;5068296;28;20460;-75
2022/11/28 08:15:14;;;;;;;10.23;9.30;;;;;;;;;;5050088;28;20869;-74
2022/11/28 08:17:41;;;;;;;12.43;11.20;;;;;;;;;;5050264;28;20450;-75
2022/11/28 08:20:09;;;;;;;12.37;10.53;;;;;;;;;;5049669;28;20485;-76
2022/11/28 08:22:36;;;;;;;12.60;10.87;;;;;;;;;;5048954;28;20460;-76
2022/11/28 08:25:05;;;;;;;12.07;10.90;;;;;;;;;;5050492;28;20457;-76
2022/11/28 08:27:32;;;;;;;11.60;10.50;;;;;;;;;;5051504;28;20450;-75
2022/11/28 08:29:59;;;;;;;12.70;11.43;;;;;;;;;;5049997;28;20491;-75
2022/11/28 08:32:26;;;;;;;13.63;11.30;;;;;;;;;;5049351;28;20450;-76
2022/11/28 08:34:53;;;;;;;12.30;11.10;;;;;;;;;;5051591;28;20468;-75
2022/11/28 08:37:21;;;;;;;12.97;11.67;;;;;;;;;;5053726;28;20454;-75
2022/11/28 08:39:48;;;;;;;12.90;11.63;;;;;;;;;;5055465;28;20452;-75
2022/11/28 08:42:16;;;;;;;12.87;11.67;;;;;;;;;;5054719;28;20445;-76
2022/11/28 08:44:43;;;;;;;13.97;12.57;;;;;;;;;;5054439;28;20457;-75
2022/11/28 08:47:10;;;;;;;13.63;11.23;;;;;;;;;;5073783;28;20823;-76
2022/11/28 08:49:38;;;;;;;13.70;11.57;;;;;;;;;;5072480;28;20945;-76
2022/11/28 08:52:05;;;;;;;13.20;11.90;;;;;;;;;;5062993;28;20442;-77
2022/11/28 08:54:32;;;;;;;13.30;11.80;;;;;;;;;;5069840;28;21088;-77
2022/11/28 08:57:00;;;;;;;13.40;10.73;;;;;;;;;;5075421;28;20440;-76
2022/11/28 08:59:28;;;;;;;18.70;12.10;;;;;;;;;;5070956;28;20445;-76
2022/11/28 09:01:56;;;;;;;12.77;11.57;;;;;;;;;;5066938;28;20469;-75
2022/11/28 09:04:23;;;;;;;13.57;11.57;;;;;;;;;;5071824;28;21243;-77
2022/11/28 09:06:51;;;;;;;13.90;11.83;;;;;;;;;;5078310;28;20444;-75
2022/11/28 09:09:18;;;;;;;14.13;12.63;;;;;;;;;;5075258;28;20456;-76
2022/11/28 09:11:45;;;;;;;13.33;11.97;;;;;;;;;;5073887;28;20934;-76
2022/11/28 09:14:12;;;;;;;17.33;15.27;;;;;;;;;;5070780;28;20851;-77
2022/11/28 09:16:41;;;;;;;14.50;13.00;;;;;;;;;;5061182;28;20968;-77
2022/11/28 09:19:09;;;;;;;14.63;12.80;;;;;;;;;;5071067;28;20444;-77
2022/11/28 09:21:36;;;;;;;13.77;12.37;;;;;;;;;;5072666;28;20785;-76
2022/11/28 09:24:04;;;;;;;15.00;12.50;;;;;;;;;;5071970;28;20465;-76
2022/11/28 09:26:32;;;;;;;15.13;12.70;;;;;;;;;;5072422;28;20450;-76
2022/11/28 09:28:59;;;;;;;13.57;11.93;;;;;;;;;;5072510;28;20464;-76
2022/11/28 09:31:26;;;;;;;13.97;12.53;;;;;;;;;;5072773;28;20441;-77
2022/11/28 09:33:55;;;;;;;14.87;12.23;;;;;;;;;;5071796;28;20506;-77
2022/11/28 09:36:27;;;;;;;14.20;12.80;;;;;;;;;;5071517;28;20449;-76
2022/11/28 09:38:54;;;;;;;15.17;12.70;;;;;;;;;;5067216;28;20481;-76
2022/11/28 09:41:29;;;;;;;14.20;12.90;;;;;;;;;;5072188;28;20501;-78
2022/11/28 09:43:59;;;;;;;15.57;13.50;;;;;;;;;;5061079;28;20825;-76
2022/11/28 09:46:28;;;;;;;15.73;12.63;;;;;;;;;;5062238;28;20991;-77
2022/11/28 09:48:58;;;;;;;15.23;13.63;;;;;;;;;;5063943;28;20828;-76
2022/11/28 09:51:28;;;;;;;14.40;12.90;;;;;;;;;;5071949;28;20437;-77
2022/11/28 09:54:00;;;;;;;12.70;11.13;;;;;;;;;;5071531;28;20443;-77
2022/11/28 09:56:28;;;;;;;21.27;12.10;;;;;;;;;;5072098;28;20453;-76
2022/11/28 09:58:57;;;;;;;15.43;12.90;;;;;;;;;;5070636;28;20455;-76
2022/11/28 10:01:28;;;;;;;12.50;11.37;;;;;;;;;;5068731;28;20470;-76
2022/11/28 10:04:00;;;;;;;14.77;12.13;;;;;;;;;;5070898;28;20458;-76
2022/11/28 10:06:29;;;;;;;14.93;12.00;;;;;;;;;;5071677;28;20536;-76
2022/11/28 10:09:03;;;;;;;12.50;11.30;;;;;;;;;;5071579;28;20444;-77
2022/11/28 10:11:38;;;;;;;13.77;12.47;;;;;;;;;;5071525;28;20434;-77
2022/11/28 10:14:11;;;;;;;12.60;11.40;;;;;;;;;;5071328;28;20473;-76
2022/11/28 10:16:44;;;;;;;12.20;10.50;;;;;;;;;;5071570;28;20442;-76
2022/11/28 10:19:14;;;;;;;11.90;10.27;;;;;;;;;;5071335;28;20822;-77
2022/11/28 10:21:44;;;;;;;12.70;10.87;;;;;;;;;;5071474;28;20852;-76
2022/11/28 10:24:14;;;;;;;14.07;10.50;;;;;;;;;;5070560;28;20460;-76
2022/11/28 10:26:43;;;;;;;12.63;10.60;;;;;;;;;;5070961;28;20542;-76
2022/11/28 10:29:15;;;;;;;14.50;11.03;;;;;;;;;;5071464;28;20442;-76
2022/11/28 10:31:43;;;;;;;12.47;11.20;;;;;;;;;;5071214;28;20438;-76
2022/11/28 10:34:14;;;;;;;13.63;11.10;;;;;;;;;;5070512;28;20477;-76
2022/11/28 10:36:49;;;;;;;12.10;10.90;;;;;;;;;;5071342;28;20456;-77
2022/11/28 10:39:16;;;;;;;14.00;10.80;;;;;;;;;;5070890;28;20436;-75
2022/11/28 10:42:10;;;;;;;13.17;11.87;;;;;;;;;;5071208;28;20480;-76
2022/11/28 10:44:38;;;;;;;13.60;11.70;;;;;;;;;;5069899;28;20542;-76
2022/11/28 10:47:08;;;;;;;11.20;10.10;;;;;;;;;;5071097;28;20450;-77
2022/11/28 10:49:43;;;;;;;15.87;12.13;;;;;;;;;;5070749;28;20442;-76
2022/11/28 10:52:15;;;;;;;12.80;11.50;;;;;;;;;;5070916;28;20445;-77
2022/11/28 10:54:51;;;;;;;15.30;11.90;;;;;;;;;;5070042;28;20471;-76
2022/11/28 10:57:21;;;;;;;12.17;10.90;;;;;;;;;;5070362;28;20447;-76
2022/11/28 10:59:56;;;;;;;14.03;11.37;;;;;;;;;;5070498;28;20835;-77
2022/11/28 11:02:27;;;;;;;16.27;11.23;;;;;;;;;;5070429;28;20898;-76
2022/11/28 11:04:54;;;;;;;11.70;10.70;;;;;;;;;;5070098;28;20478;-76
2022/11/28 11:07:25;;;;;;;15.23;11.27;;;;;;;;;;5060309;28;20739;-77
2022/11/28 11:09:52;;;;;;;12.43;11.13;;;;;;;;;;5060022;28;20442;-77
2022/11/28 11:12:22;;;;;;;13.20;11.20;;;;;;;;;;5063906;28;20929;-77
2022/11/28 11:14:49;;;;;;;13.20;11.77;;;;;;;;;;5060207;28;20473;-76
2022/11/28 11:17:25;;;;;;;12.57;11.37;;;;;;;;;;5051916;28;20450;-77
2022/11/28 11:19:52;;;;;;;12.33;11.17;;;;;;;;;;5053282;28;20497;-77
2022/11/28 11:22:21;;;;;;;13.20;11.90;;;;;;;;;;5053351;28;20599;-77
2022/11/28 11:25:04;;;;;;;13.80;11.80;;;;;;;;;;5050112;28;20962;-77
2022/11/28 11:27:31;;;;;;;13.53;12.03;;;;;;;;;;5053293;28;20464;-78
2022/11/28 11:29:59;;;;;;;13.93;11.10;;;;;;;;;;5061844;28;20451;-76
2022/11/28 11:32:28;;;;;;;14.43;11.83;;;;;;;;;;5052083;28;20925;-76
2022/11/28 11:34:56;;;;;;;13.97;11.67;;;;;;;;;;5062385;28;20457;-75
2022/11/28 11:37:33;;;;;;;13.47;12.00;;;;;;;;;;5081224;28;20440;-77
2022/11/28 11:40:01;;;;;;;13.90;11.90;;;;;;;;;;5073656;28;20447;-77
2022/11/28 11:42:30;;;;;;;13.97;12.10;;;;;;;;;;5081600;28;20481;-77
2022/11/28 11:44:57;;;;;;;14.63;12.30;;;;;;;;;;5070426;28;20464;-77
2022/11/28 11:47:40;;;;;;;14.97;11.87;;;;;;;;;;5070699;28;20448;-77
2022/11/28 11:50:08;;;;;;;13.63;12.33;;;;;;;;;;5070427;28;20448;-77
2022/11/28 11:52:35;;;;;;;13.53;12.23;;;;;;;;;;5066943;28;20959;-78
2022/11/28 11:55:03;;;;;;;13.83;12.63;;;;;;;;;;5053798;28;20466;-77
2022/11/28 11:57:34;;;;;;;13.77;12.43;;;;;;;;;;5074345;28;20436;-76
2022/11/28 12:00:03;;;;;;;14.73;13.33;;;;;;;;;;5082162;28;20454;-78
2022/11/28 12:02:32;;;;;;;16.17;14.13;;;;;;;;;;5082257;28;20467;-77
2022/11/28 12:05:02;;;;;;;13.27;11.97;;;;;;;;;;5086477;28;20490;-77
2022/11/28 12:07:31;;;;;;;14.17;12.87;;;;;;;;;;5085741;28;20447;-78
2022/11/28 12:09:59;;;;;;;14.60;12.30;;;;;;;;;;5080610;28;20521;-77
2022/11/28 12:12:28;;;;;;;13.60;12.30;;;;;;;;;;5077167;28;20443;-79
2022/11/28 12:14:57;;;;;;;12.70;11.50;;;;;;;;;;5076135;28;20553;-77
2022/11/28 12:17:31;;;;;;;19.13;13.50;;;;;;;;;;5075641;28;21244;-78
2022/11/28 12:20:05;;;;;;;13.30;12.00;;;;;;;;;;5076404;28;20510;-77
2022/11/28 12:22:35;;;;;;;15.83;14.10;;;;;;;;;;5076370;28;20540;-77
2022/11/28 12:25:09;;;;;;;14.67;13.27;;;;;;;;;;5084551;28;20464;-78
2022/11/28 12:27:45;;;;;;;14.83;13.30;;;;;;;;;;5081808;28;20437;-76
2022/11/28 12:30:23;;;;;;;14.43;13.07;;;;;;;;;;5083585;28;20431;-77
2022/11/28 12:32:58;;;;;;;14.50;13.10;;;;;;;;;;5084994;28;20939;-77
2022/11/28 12:35:33;;;;;;;15.77;14.20;;;;;;;;;;5077744;28;20471;-77
2022/11/28 12:38:07;;;;;;;14.17;12.87;;;;;;;;;;5075203;28;20432;-77
2022/11/28 12:40:36;;;;;;;15.93;13.50;;;;;;;;;;5074146;28;20439;-77
2022/11/28 12:43:09;;;;;;;16.10;14.40;;;;;;;;;;5072831;28;20889;-77
2022/11/28 12:45:42;;;;;;;15.20;13.60;;;;;;;;;;5073517;28;20464;-78
2022/11/28 12:48:15;;;;;;;15.80;14.13;;;;;;;;;;5082401;28;20958;-77
2022/11/28 12:50:43;;;;;;;16.40;14.77;;;;;;;;;;5068901;28;20863;-77
2022/11/28 12:53:37;;;;;;;18.07;14.73;;;;;;;;;;5071179;28;20804;-77
2022/11/28 12:56:09;;;;;;;14.77;13.37;;;;;;;;;;5037304;28;20448;-76
2022/11/28 12:58:39;;;;;;;15.30;13.70;;;;;;;;;;5073447;28;20448;-77
2022/11/28 13:01:15;;;;;;;16.63;14.90;;;;;;;;;;5073002;28;20448;-78
2022/11/28 13:03:49;;;;;;;15.63;13.83;;;;;;;;;;5072795;28;20944;-78
2022/11/28 13:06:25;;;;;;;15.70;14.10;;;;;;;;;;5073487;28;20483;-77
2022/11/28 13:09:07;;;;;;;15.40;13.90;;;;;;;;;;5073185;28;20445;-77
2022/11/28 13:11:41;;;;;;;16.57;15.00;;;;;;;;;;5073931;28;20812;-76
2022/11/28 13:14:12;;;;;;;15.80;14.17;;;;;;;;;;5072878;28;20471;-77
2022/11/28 13:16:43;;;;;;;16.60;14.37;;;;;;;;;;5073734;28;20453;-77
2022/11/28 13:19:12;;;;;;;18.87;15.00;;;;;;;;;;5075285;28;20433;-77
2022/11/28 13:21:43;;;;;;;17.10;15.37;;;;;;;;;;5076105;28;20492;-77
2022/11/28 13:24:15;;;;;;;16.70;13.97;;;;;;;;;;5079181;28;20990;-77
2022/11/28 13:26:48;;;;;;;15.83;13.97;;;;;;;;;;5077060;28;20432;-76
2022/11/28 13:29:21;;;;;;;15.97;14.47;;;;;;;;;;5074734;28;20437;-78
2022/11/28 13:31:51;;;;;;;17.60;14.87;;;;;;;;;;5074871;28;20428;-76
2022/11/28 13:34:19;;;;;;;17.40;15.70;;;;;;;;;;5079014;28;20468;-78
2022/11/28 13:36:50;;;;;;;19.50;15.83;;;;;;;;;;5078364;28;20444;-77
2022/11/28 13:39:20;;;;;;;16.67;15.00;;;;;;;;;;5075619;28;20425;-77
2022/11/28 13:41:50;;;;;;;17.60;15.50;;;;;;;;;;5072498;28;20469;-77
2022/11/28 13:44:18;;;;;;;16.70;14.90;;;;;;;;;;5071893;28;20471;-77
2022/11/28 13:46:46;;;;;;;17.90;15.30;;;;;;;;;;5071833;28;20845;-77
2022/11/28 13:49:21;;;;;;;16.33;14.53;;;;;;;;;;5068853;28;20464;-77
2022/11/28 13:51:48;;;;;;;15.13;13.50;;;;;;;;;;5071968;28;20906;-77
2022/11/28 13:54:43;;;;;;;17.10;14.90;;;;;;;;;;5071502;28;20477;-77
2022/11/28 13:57:27;;;;;;;17.67;14.63;;;;;;;;;;5071854;28;20939;-78
2022/11/28 14:00:00;;;;;;;14.93;13.53;;;;;;;;;;5072325;28;20464;-76
2022/11/28 14:02:34;;;;;;;15.40;13.77;;;;;;;;;;5071830;28;20541;-77
2022/11/28 14:05:03;;;;;;;15.70;14.20;;;;;;;;;;5071937;28;20480;-78
2022/11/28 14:07:31;;;;;;;14.83;13.13;;;;;;;;;;5072256;28;20441;-76
2022/11/28 14:10:16;;;;;;;15.90;13.70;;;;;;;;;;5072379;28;20448;-78
2022/11/28 14:12:49;;;;;;;16.50;14.30;;;;;;;;;;5068351;28;20442;-77
2022/11/28 14:15:24;;;;;;;16.00;14.40;;;;;;;;;;5079070;28;20522;-76
2022/11/28 14:17:59;;;;;;;17.10;13.97;;;;;;;;;;5073995;28;20447;-76
2022/11/28 14:20:31;;;;;;;19.43;14.90;;;;;;;;;;5072996;28;20428;-77
2022/11/28 14:23:08;;;;;;;14.10;12.70;;;;;;;;;;5071528;28;20476;-76
2022/11/28 14:25:40;;;;;;;16.37;14.70;;;;;;;;;;5071917;28;20460;-77
2022/11/28 14:28:16;;;;;;;16.33;13.50;;;;;;;;;;5073147;28;20448;-77
2022/11/28 14:30:44;;;;;;;18.87;14.43;;;;;;;;;;5074455;28;20912;-78
2022/11/28 14:33:17;;;;;;;16.00;14.40;;;;;;;;;;5071417;28;20959;-78
2022/11/28 14:36:07;;;;;;;16.90;15.30;;;;;;;;;;5075411;28;20472;-77
2022/11/28 14:38:44;;;;;;;17.10;15.30;;;;;;;;;;5072004;28;20429;-77
2022/11/28 14:41:13;;;;;;;18.57;15.23;;;;;;;;;;5071659;28;20527;-77
2022/11/28 14:43:41;;;;;;;18.87;15.63;;;;;;;;;;5070373;28;20476;-76